Portada
METAR-TAF:

METAR-TAF

Aeroports :

St. George, Alaska, Estats Units d'Amèrica

latitud: 56-34-43N, longitud: 169-39-41W, altitud: 38 m

Observació

L'informe es va fer fa 15 minuts, a les 23:53 UTC
Vent 13 kt del Nord amb ràfegues de 24 kt
Temperatura -2°C
Humitat 74%
Pressió 1010 hPa
Visibilitat: 9.7 km
Núvols disperses a una alçada de 2000 ft
Cel ennuvolat a una alçada de 2800 ft
Cel ennuvolat a una alçada de 3700 ft
calitja

METAR: PAPB 212353Z AUTO 36013G24KT 6SM HZ SCT020 BKN028 BKN037 M02/M06 A2983 RMK AO2 SNB09E27 SLP090 P0000 60000 T10221061 11017 21033 51007 TSNO

Hora: 16:08 (00:08 UTC)


TAF: manca

Observacions i pronòstics meteorològics de més de 4000 aeroports (METAR i TAF).

Les estacions disponibles són els punts grocs i vermells al mapa.

Posi el ratolí al punt desitjat per veure el nom de l'estació.

Feu clic per veure les observacions i els pronòstics meteorològics.

Per canviar el mapa: feu clic els botons verds amb una creu de color negre per apropar; al botó verd amb un guió per allunyar la imatge; o en les fletxes verdes per a mapes adjacents.


METAR-TAF: